sensor_id;sensor_type;location;lat;lon;timestamp;pressure;altitude;pressure_sealevel;temperature;humidity
58072;BME280;60383;46.626;18.866;2022-08-26T00:00:29;100033.75;;;23.83;68.23
58072;BME280;60383;46.626;18.866;2022-08-26T00:02:54;100034.84;;;23.82;68.31
58072;BME280;60383;46.626;18.866;2022-08-26T00:05:20;100029.41;;;23.92;67.80
58072;BME280;60383;46.626;18.866;2022-08-26T00:07:46;100025.69;;;23.87;68.28
58072;BME280;60383;46.626;18.866;2022-08-26T00:10:11;100025.34;;;23.83;68.20
58072;BME280;60383;46.626;18.866;2022-08-26T00:12:38;100019.69;;;23.78;68.04
58072;BME280;60383;46.626;18.866;2022-08-26T00:15:06;100021.47;;;23.67;68.86
58072;BME280;60383;46.626;18.866;2022-08-26T00:17:33;100013.31;;;23.66;69.09
58072;BME280;60383;46.626;18.866;2022-08-26T00:19:58;100019.78;;;23.66;68.62
58072;BME280;60383;46.626;18.866;2022-08-26T00:22:25;100016.56;;;23.57;68.87
58072;BME280;60383;46.626;18.866;2022-08-26T00:24:50;100018.16;;;23.53;68.96
58072;BME280;60383;46.626;18.866;2022-08-26T00:27:16;100016.91;;;23.61;68.85
58072;BME280;60383;46.626;18.866;2022-08-26T00:29:42;100015.97;;;23.55;69.29
58072;BME280;60383;46.626;18.866;2022-08-26T00:32:07;100024.41;;;23.60;68.72
58072;BME280;60383;46.626;18.866;2022-08-26T00:34:33;100025.78;;;23.58;69.28
58072;BME280;60383;46.626;18.866;2022-08-26T00:36:58;100015.78;;;23.62;69.20
58072;BME280;60383;46.626;18.866;2022-08-26T00:39:24;100020.53;;;23.61;68.81
58072;BME280;60383;46.626;18.866;2022-08-26T00:41:50;100020.78;;;23.60;68.77
58072;BME280;60383;46.626;18.866;2022-08-26T00:44:16;100019.25;;;23.52;69.27
58072;BME280;60383;46.626;18.866;2022-08-26T00:46:48;100020.78;;;23.43;69.93
58072;BME280;60383;46.626;18.866;2022-08-26T00:49:20;100027.06;;;23.50;69.35
58072;BME280;60383;46.626;18.866;2022-08-26T00:51:50;100024.75;;;23.47;69.68
58072;BME280;60383;46.626;18.866;2022-08-26T00:54:19;100023.31;;;23.44;69.48
58072;BME280;60383;46.626;18.866;2022-08-26T00:57:02;100020.25;;;23.46;70.03
58072;BME280;60383;46.626;18.866;2022-08-26T00:59:29;100024.06;;;23.40;69.91
58072;BME280;60383;46.626;18.866;2022-08-26T01:01:56;100027.72;;;23.40;70.08
58072;BME280;60383;46.626;18.866;2022-08-26T01:04:22;100025.09;;;23.34;70.39
58072;BME280;60383;46.626;18.866;2022-08-26T01:06:51;100019.22;;;23.35;70.20
58072;BME280;60383;46.626;18.866;2022-08-26T01:09:18;100027.53;;;23.30;70.02
58072;BME280;60383;46.626;18.866;2022-08-26T01:11:45;100033.31;;;23.40;70.08
58072;BME280;60383;46.626;18.866;2022-08-26T01:14:12;100029.03;;;23.21;70.61
58072;BME280;60383;46.626;18.866;2022-08-26T01:16:38;100030.00;;;23.14;70.76
58072;BME280;60383;46.626;18.866;2022-08-26T01:19:27;100021.50;;;23.21;70.58
58072;BME280;60383;46.626;18.866;2022-08-26T01:22:16;100021.59;;;23.26;69.83
58072;BME280;60383;46.626;18.866;2022-08-26T01:24:47;100029.16;;;23.26;70.20
58072;BME280;60383;46.626;18.866;2022-08-26T01:27:17;100027.72;;;23.23;70.08
58072;BME280;60383;46.626;18.866;2022-08-26T01:29:45;100023.31;;;23.16;70.66
58072;BME280;60383;46.626;18.866;2022-08-26T01:32:15;100010.00;;;23.18;70.44
58072;BME280;60383;46.626;18.866;2022-08-26T01:34:42;100019.25;;;23.06;71.22
58072;BME280;60383;46.626;18.866;2022-08-26T01:37:17;100026.34;;;22.97;71.46
58072;BME280;60383;46.626;18.866;2022-08-26T01:39:47;100024.63;;;22.96;71.60
58072;BME280;60383;46.626;18.866;2022-08-26T01:42:14;100022.72;;;23.13;71.14
58072;BME280;60383;46.626;18.866;2022-08-26T01:45:11;100020.06;;;23.19;70.98
58072;BME280;60383;46.626;18.866;2022-08-26T01:47:39;100020.31;;;23.17;70.94
58072;BME280;60383;46.626;18.866;2022-08-26T01:50:13;100016.53;;;23.23;70.42
58072;BME280;60383;46.626;18.866;2022-08-26T01:52:41;100018.66;;;23.04;71.39
58072;BME280;60383;46.626;18.866;2022-08-26T01:55:11;100013.81;;;23.00;71.62
58072;BME280;60383;46.626;18.866;2022-08-26T01:57:39;100015.91;;;22.92;71.50
58072;BME280;60383;46.626;18.866;2022-08-26T02:00:07;100008.16;;;22.94;71.23
58072;BME280;60383;46.626;18.866;2022-08-26T02:02:35;100012.44;;;22.85;71.74
58072;BME280;60383;46.626;18.866;2022-08-26T02:05:04;100013.63;;;22.60;72.75
58072;BME280;60383;46.626;18.866;2022-08-26T02:07:32;100013.69;;;22.77;72.79
58072;BME280;60383;46.626;18.866;2022-08-26T02:09:58;100014.06;;;22.69;72.15
58072;BME280;60383;46.626;18.866;2022-08-26T02:12:23;100011.94;;;22.88;72.09
58072;BME280;60383;46.626;18.866;2022-08-26T02:14:53;100015.97;;;22.80;72.05
58072;BME280;60383;46.626;18.866;2022-08-26T02:17:25;100016.75;;;22.64;72.94
58072;BME280;60383;46.626;18.866;2022-08-26T02:19:52;100016.88;;;22.57;73.01
58072;BME280;60383;46.626;18.866;2022-08-26T02:22:21;100007.44;;;22.58;73.38
58072;BME280;60383;46.626;18.866;2022-08-26T02:24:52;100014.72;;;22.59;72.95
58072;BME280;60383;46.626;18.866;2022-08-26T02:27:22;100014.81;;;22.64;73.17
58072;BME280;60383;46.626;18.866;2022-08-26T02:29:53;100019.00;;;22.79;72.82
58072;BME280;60383;46.626;18.866;2022-08-26T02:32:20;100015.22;;;22.85;72.64
58072;BME280;60383;46.626;18.866;2022-08-26T02:34:46;100011.34;;;22.86;72.14
58072;BME280;60383;46.626;18.866;2022-08-26T02:37:11;100018.88;;;22.86;71.88
58072;BME280;60383;46.626;18.866;2022-08-26T02:39:39;100021.38;;;22.99;71.46
58072;BME280;60383;46.626;18.866;2022-08-26T02:42:05;100010.41;;;22.97;71.39
58072;BME280;60383;46.626;18.866;2022-08-26T02:44:31;100011.84;;;23.00;71.12
58072;BME280;60383;46.626;18.866;2022-08-26T02:46:57;100002.16;;;23.03;71.33
58072;BME280;60383;46.626;18.866;2022-08-26T02:49:24;99994.28;;;23.00;71.24
58072;BME280;60383;46.626;18.866;2022-08-26T02:51:50;100004.25;;;22.95;71.30
58072;BME280;60383;46.626;18.866;2022-08-26T02:54:16;100005.44;;;23.00;71.18
58072;BME280;60383;46.626;18.866;2022-08-26T02:56:42;100005.13;;;23.13;70.60
58072;BME280;60383;46.626;18.866;2022-08-26T02:59:08;99998.38;;;23.09;70.06
58072;BME280;60383;46.626;18.866;2022-08-26T03:01:34;100006.13;;;23.07;69.91
58072;BME280;60383;46.626;18.866;2022-08-26T03:04:02;100003.75;;;22.98;70.70
58072;BME280;60383;46.626;18.866;2022-08-26T03:06:28;100001.38;;;23.07;69.63
58072;BME280;60383;46.626;18.866;2022-08-26T03:08:54;100000.22;;;23.03;69.91
58072;BME280;60383;46.626;18.866;2022-08-26T03:11:20;100004.59;;;22.99;70.16
58072;BME280;60383;46.626;18.866;2022-08-26T03:13:45;100009.31;;;22.98;70.06
58072;BME280;60383;46.626;18.866;2022-08-26T03:16:11;100002.16;;;23.03;69.59
58072;BME280;60383;46.626;18.866;2022-08-26T03:18:38;100002.66;;;23.00;70.00
58072;BME280;60383;46.626;18.866;2022-08-26T03:21:08;100007.16;;;23.01;69.66
58072;BME280;60383;46.626;18.866;2022-08-26T03:23:35;100005.09;;;22.96;69.44
58072;BME280;60383;46.626;18.866;2022-08-26T03:26:01;100005.34;;;22.94;69.85
58072;BME280;60383;46.626;18.866;2022-08-26T03:28:27;100009.63;;;22.85;70.15
58072;BME280;60383;46.626;18.866;2022-08-26T03:30:53;100006.75;;;22.80;70.30
58072;BME280;60383;46.626;18.866;2022-08-26T03:33:18;100004.44;;;22.77;70.25
58072;BME280;60383;46.626;18.866;2022-08-26T03:35:44;100001.06;;;22.75;70.05
58072;BME280;60383;46.626;18.866;2022-08-26T03:38:12;99996.72;;;22.67;70.17
58072;BME280;60383;46.626;18.866;2022-08-26T03:40:38;99998.84;;;22.77;69.46
58072;BME280;60383;46.626;18.866;2022-08-26T03:43:05;100002.00;;;22.80;69.63
58072;BME280;60383;46.626;18.866;2022-08-26T03:45:31;99998.84;;;22.77;69.54
58072;BME280;60383;46.626;18.866;2022-08-26T03:47:57;100002.25;;;22.79;69.37
58072;BME280;60383;46.626;18.866;2022-08-26T03:50:23;99996.59;;;22.74;69.34
58072;BME280;60383;46.626;18.866;2022-08-26T03:52:50;99998.28;;;22.75;69.07
58072;BME280;60383;46.626;18.866;2022-08-26T03:55:17;99998.75;;;22.72;69.08
58072;BME280;60383;46.626;18.866;2022-08-26T03:57:43;99996.94;;;22.77;68.95
58072;BME280;60383;46.626;18.866;2022-08-26T04:00:12;100002.75;;;22.76;69.05
58072;BME280;60383;46.626;18.866;2022-08-26T04:02:43;99989.69;;;22.64;69.11
58072;BME280;60383;46.626;18.866;2022-08-26T04:05:11;99991.75;;;22.69;68.58
58072;BME280;60383;46.626;18.866;2022-08-26T04:07:38;99994.66;;;22.62;68.62
58072;BME280;60383;46.626;18.866;2022-08-26T04:10:04;100001.47;;;22.67;68.73
58072;BME280;60383;46.626;18.866;2022-08-26T04:12:29;99994.78;;;22.68;68.71
58072;BME280;60383;46.626;18.866;2022-08-26T04:14:55;99995.38;;;22.70;67.92
58072;BME280;60383;46.626;18.866;2022-08-26T04:17:20;99995.63;;;22.68;68.17
58072;BME280;60383;46.626;18.866;2022-08-26T04:19:46;100004.22;;;22.78;67.45
58072;BME280;60383;46.626;18.866;2022-08-26T04:22:11;99993.63;;;22.80;67.47
58072;BME280;60383;46.626;18.866;2022-08-26T04:24:37;100004.22;;;22.78;67.07
58072;BME280;60383;46.626;18.866;2022-08-26T04:27:04;99994.97;;;22.78;67.10
58072;BME280;60383;46.626;18.866;2022-08-26T04:29:30;100000.41;;;22.85;66.61
58072;BME280;60383;46.626;18.866;2022-08-26T04:31:56;100004.41;;;22.89;65.56
58072;BME280;60383;46.626;18.866;2022-08-26T04:34:23;99995.09;;;23.00;65.53
58072;BME280;60383;46.626;18.866;2022-08-26T04:36:49;99988.56;;;23.06;64.72
58072;BME280;60383;46.626;18.866;2022-08-26T04:39:16;99988.50;;;23.18;64.57
58072;BME280;60383;46.626;18.866;2022-08-26T04:41:43;99985.47;;;23.20;64.91
58072;BME280;60383;46.626;18.866;2022-08-26T04:44:09;99989.03;;;23.32;64.83
58072;BME280;60383;46.626;18.866;2022-08-26T04:46:35;99988.28;;;23.37;64.64
58072;BME280;60383;46.626;18.866;2022-08-26T04:49:02;99990.63;;;23.45;64.36
58072;BME280;60383;46.626;18.866;2022-08-26T04:51:28;99994.63;;;23.49;64.69
58072;BME280;60383;46.626;18.866;2022-08-26T04:53:54;99990.63;;;23.45;64.96
58072;BME280;60383;46.626;18.866;2022-08-26T04:56:22;99998.94;;;23.40;64.59
58072;BME280;60383;46.626;18.866;2022-08-26T04:58:48;99994.69;;;23.37;64.96
58072;BME280;60383;46.626;18.866;2022-08-26T05:01:13;99996.56;;;23.49;64.97
58072;BME280;60383;46.626;18.866;2022-08-26T05:03:39;99992.09;;;23.48;65.07
58072;BME280;60383;46.626;18.866;2022-08-26T05:06:05;99992.84;;;23.60;63.95
58072;BME280;60383;46.626;18.866;2022-08-26T05:08:30;99993.94;;;23.76;63.51
58072;BME280;60383;46.626;18.866;2022-08-26T05:10:56;99982.16;;;23.74;63.47
58072;BME280;60383;46.626;18.866;2022-08-26T05:13:23;99986.91;;;23.73;63.83
58072;BME280;60383;46.626;18.866;2022-08-26T05:15:49;99991.75;;;23.95;62.16
58072;BME280;60383;46.626;18.866;2022-08-26T05:18:17;99985.88;;;23.80;61.91
58072;BME280;60383;46.626;18.866;2022-08-26T05:20:45;99988.41;;;23.98;61.52
58072;BME280;60383;46.626;18.866;2022-08-26T05:23:12;99988.19;;;24.22;59.71
58072;BME280;60383;46.626;18.866;2022-08-26T05:25:42;99996.50;;;24.17;60.32
58072;BME280;60383;46.626;18.866;2022-08-26T05:28:09;99990.00;;;24.33;59.60
58072;BME280;60383;46.626;18.866;2022-08-26T05:30:36;99994.50;;;24.34;59.65
58072;BME280;60383;46.626;18.866;2022-08-26T05:33:02;99998.56;;;24.44;59.29
58072;BME280;60383;46.626;18.866;2022-08-26T05:35:29;100001.97;;;24.51;59.13
58072;BME280;60383;46.626;18.866;2022-08-26T05:38:04;100002.91;;;24.56;59.66
58072;BME280;60383;46.626;18.866;2022-08-26T05:40:34;100006.34;;;24.64;59.07
58072;BME280;60383;46.626;18.866;2022-08-26T05:42:59;100004.66;;;24.63;58.91
58072;BME280;60383;46.626;18.866;2022-08-26T05:45:26;99998.75;;;24.81;58.67
58072;BME280;60383;46.626;18.866;2022-08-26T05:47:52;100001.88;;;24.85;58.54
58072;BME280;60383;46.626;18.866;2022-08-26T05:50:18;99997.84;;;24.76;57.95
58072;BME280;60383;46.626;18.866;2022-08-26T05:52:47;99998.38;;;25.00;56.76
58072;BME280;60383;46.626;18.866;2022-08-26T05:55:13;100003.63;;;24.91;57.25
58072;BME280;60383;46.626;18.866;2022-08-26T05:57:38;100014.66;;;25.03;57.52
58072;BME280;60383;46.626;18.866;2022-08-26T06:00:04;100001.13;;;25.22;57.69
58072;BME280;60383;46.626;18.866;2022-08-26T06:02:30;100008.59;;;25.39;57.54
58072;BME280;60383;46.626;18.866;2022-08-26T06:04:55;100008.25;;;25.35;57.85
58072;BME280;60383;46.626;18.866;2022-08-26T06:07:21;100002.84;;;25.56;56.17
58072;BME280;60383;46.626;18.866;2022-08-26T06:10:06;100006.84;;;25.65;55.61
58072;BME280;60383;46.626;18.866;2022-08-26T06:12:32;100012.50;;;25.70;55.03
58072;BME280;60383;46.626;18.866;2022-08-26T06:14:58;100005.72;;;25.66;55.05
58072;BME280;60383;46.626;18.866;2022-08-26T06:17:23;100011.06;;;25.67;56.19
58072;BME280;60383;46.626;18.866;2022-08-26T06:19:49;100008.00;;;25.69;55.65
58072;BME280;60383;46.626;18.866;2022-08-26T06:22:15;100016.97;;;25.71;55.50
58072;BME280;60383;46.626;18.866;2022-08-26T06:24:59;100022.88;;;25.70;55.84
58072;BME280;60383;46.626;18.866;2022-08-26T06:27:43;100015.88;;;25.72;56.57
58072;BME280;60383;46.626;18.866;2022-08-26T06:30:08;100029.66;;;25.79;56.53
58072;BME280;60383;46.626;18.866;2022-08-26T06:32:34;100022.06;;;25.74;56.50
58072;BME280;60383;46.626;18.866;2022-08-26T06:35:00;100030.41;;;25.64;57.49
58072;BME280;60383;46.626;18.866;2022-08-26T06:37:25;100028.94;;;25.61;57.63
58072;BME280;60383;46.626;18.866;2022-08-26T06:39:50;100030.75;;;25.73;57.60
58072;BME280;60383;46.626;18.866;2022-08-26T06:42:16;100030.53;;;25.84;57.72
58072;BME280;60383;46.626;18.866;2022-08-26T06:44:41;100031.22;;;25.97;56.67
58072;BME280;60383;46.626;18.866;2022-08-26T06:47:07;100036.56;;;26.04;56.79
58072;BME280;60383;46.626;18.866;2022-08-26T06:49:32;100030.47;;;26.07;53.68
58072;BME280;60383;46.626;18.866;2022-08-26T06:51:58;100034.44;;;26.16;53.31
58072;BME280;60383;46.626;18.866;2022-08-26T06:54:23;100031.09;;;26.19;53.56
58072;BME280;60383;46.626;18.866;2022-08-26T06:56:48;100038.72;;;26.24;52.73
58072;BME280;60383;46.626;18.866;2022-08-26T06:59:14;100037.91;;;26.28;53.44
58072;BME280;60383;46.626;18.866;2022-08-26T07:01:42;100035.41;;;26.37;54.43
58072;BME280;60383;46.626;18.866;2022-08-26T07:04:12;100030.06;;;26.36;53.04
58072;BME280;60383;46.626;18.866;2022-08-26T07:06:39;100035.16;;;26.44;52.93
58072;BME280;60383;46.626;18.866;2022-08-26T07:09:06;100031.81;;;26.52;53.76
58072;BME280;60383;46.626;18.866;2022-08-26T07:11:33;100031.53;;;26.54;52.49
58072;BME280;60383;46.626;18.866;2022-08-26T07:13:59;100031.59;;;26.59;53.10
58072;BME280;60383;46.626;18.866;2022-08-26T07:16:25;100039.72;;;26.60;52.10
58072;BME280;60383;46.626;18.866;2022-08-26T07:18:52;100034.69;;;26.62;52.11
58072;BME280;60383;46.626;18.866;2022-08-26T07:21:19;100038.34;;;26.68;52.08
58072;BME280;60383;46.626;18.866;2022-08-26T07:23:45;100026.28;;;26.73;51.46
58072;BME280;60383;46.626;18.866;2022-08-26T07:26:20;100032.25;;;26.82;52.07
58072;BME280;60383;46.626;18.866;2022-08-26T07:28:47;100030.59;;;26.86;52.00
58072;BME280;60383;46.626;18.866;2022-08-26T07:31:15;100017.72;;;27.00;51.84
58072;BME280;60383;46.626;18.866;2022-08-26T07:33:42;100024.22;;;27.16;52.07
58072;BME280;60383;46.626;18.866;2022-08-26T07:36:09;100019.72;;;27.25;52.65
58072;BME280;60383;46.626;18.866;2022-08-26T07:38:36;100013.56;;;27.39;50.72
58072;BME280;60383;46.626;18.866;2022-08-26T07:41:03;100028.47;;;27.45;51.30
58072;BME280;60383;46.626;18.866;2022-08-26T07:43:29;100012.16;;;27.57;50.41
58072;BME280;60383;46.626;18.866;2022-08-26T07:45:54;100029.06;;;27.72;50.58
58072;BME280;60383;46.626;18.866;2022-08-26T07:48:20;100024.25;;;27.83;50.54
58072;BME280;60383;46.626;18.866;2022-08-26T07:50:45;100026.78;;;27.95;50.44
58072;BME280;60383;46.626;18.866;2022-08-26T07:53:12;100020.88;;;27.92;48.59
58072;BME280;60383;46.626;18.866;2022-08-26T07:55:38;100020.84;;;28.02;49.37
58072;BME280;60383;46.626;18.866;2022-08-26T07:58:04;100026.50;;;27.97;47.94
58072;BME280;60383;46.626;18.866;2022-08-26T08:00:30;100026.47;;;28.02;47.85
58072;BME280;60383;46.626;18.866;2022-08-26T08:03:00;100023.72;;;28.07;48.92
58072;BME280;60383;46.626;18.866;2022-08-26T08:05:26;100025.09;;;28.15;48.53
58072;BME280;60383;46.626;18.866;2022-08-26T08:07:51;100020.81;;;28.33;48.44
58072;BME280;60383;46.626;18.866;2022-08-26T08:10:20;100019.09;;;28.47;48.10
58072;BME280;60383;46.626;18.866;2022-08-26T08:12:47;100022.19;;;28.51;47.15
58072;BME280;60383;46.626;18.866;2022-08-26T08:15:13;100011.69;;;28.67;46.60
58072;BME280;60383;46.626;18.866;2022-08-26T08:17:41;100013.63;;;28.77;46.76
58072;BME280;60383;46.626;18.866;2022-08-26T08:20:08;100013.31;;;28.83;46.10
58072;BME280;60383;46.626;18.866;2022-08-26T08:22:34;100005.41;;;28.85;45.25
58072;BME280;60383;46.626;18.866;2022-08-26T08:24:59;100007.31;;;28.95;45.70
58072;BME280;60383;46.626;18.866;2022-08-26T08:27:25;100015.75;;;29.00;44.16
58072;BME280;60383;46.626;18.866;2022-08-26T08:29:52;100008.38;;;29.10;44.45
58072;BME280;60383;46.626;18.866;2022-08-26T08:32:22;100014.56;;;29.12;42.83
58072;BME280;60383;46.626;18.866;2022-08-26T08:34:47;100002.44;;;29.11;42.28
58072;BME280;60383;46.626;18.866;2022-08-26T08:37:13;99993.72;;;29.13;41.55
58072;BME280;60383;46.626;18.866;2022-08-26T08:39:39;99999.56;;;29.22;42.19
58072;BME280;60383;46.626;18.866;2022-08-26T08:44:36;100004.72;;;29.49;43.42
58072;BME280;60383;46.626;18.866;2022-08-26T08:47:13;99999.56;;;29.61;39.81
58072;BME280;60383;46.626;18.866;2022-08-26T08:49:42;99997.25;;;29.63;39.70
58072;BME280;60383;46.626;18.866;2022-08-26T08:52:17;99996.75;;;29.61;39.84
58072;BME280;60383;46.626;18.866;2022-08-26T08:54:45;99995.19;;;29.74;40.28
58072;BME280;60383;46.626;18.866;2022-08-26T08:57:16;99996.94;;;29.70;40.39
58072;BME280;60383;46.626;18.866;2022-08-26T09:00:04;99993.69;;;29.87;40.85
58072;BME280;60383;46.626;18.866;2022-08-26T09:02:50;99994.69;;;30.02;40.03
58072;BME280;60383;46.626;18.866;2022-08-26T09:07:47;99987.19;;;30.40;40.30
58072;BME280;60383;46.626;18.866;2022-08-26T09:10:28;99982.72;;;30.58;40.20
58072;BME280;60383;46.626;18.866;2022-08-26T09:12:54;99987.97;;;30.89;39.66
58072;BME280;60383;46.626;18.866;2022-08-26T09:15:25;99981.97;;;31.15;39.61
58072;BME280;60383;46.626;18.866;2022-08-26T09:18:27;99980.72;;;31.41;38.84
58072;BME280;60383;46.626;18.866;2022-08-26T09:21:01;99978.16;;;31.58;38.13
58072;BME280;60383;46.626;18.866;2022-08-26T09:23:28;99981.44;;;31.65;38.37
58072;BME280;60383;46.626;18.866;2022-08-26T09:25:57;99979.59;;;31.75;37.39
58072;BME280;60383;46.626;18.866;2022-08-26T09:28:25;99976.16;;;31.78;37.18
58072;BME280;60383;46.626;18.866;2022-08-26T09:33:30;99983.94;;;32.00;37.56
58072;BME280;60383;46.626;18.866;2022-08-26T09:36:22;99992.34;;;32.05;36.58
58072;BME280;60383;46.626;18.866;2022-08-26T09:38:57;99986.56;;;32.10;36.28
58072;BME280;60383;46.626;18.866;2022-08-26T09:41:25;99985.31;;;32.16;36.98
58072;BME280;60383;46.626;18.866;2022-08-26T09:46:28;99968.38;;;32.30;36.41
58072;BME280;60383;46.626;18.866;2022-08-26T09:48:55;99969.59;;;32.38;36.50
58072;BME280;60383;46.626;18.866;2022-08-26T09:54:05;99963.28;;;32.69;35.45
58072;BME280;60383;46.626;18.866;2022-08-26T09:56:33;99964.22;;;32.78;35.29
58072;BME280;60383;46.626;18.866;2022-08-26T09:59:00;99968.53;;;32.90;34.87
58072;BME280;60383;46.626;18.866;2022-08-26T10:01:39;99967.13;;;33.01;34.29
58072;BME280;60383;46.626;18.866;2022-08-26T10:04:11;99961.91;;;32.94;34.82
58072;BME280;60383;46.626;18.866;2022-08-26T10:06:42;99956.31;;;32.89;35.36
58072;BME280;60383;46.626;18.866;2022-08-26T10:09:11;99963.66;;;33.04;35.30
58072;BME280;60383;46.626;18.866;2022-08-26T10:11:45;99953.66;;;33.07;34.63
58072;BME280;60383;46.626;18.866;2022-08-26T10:14:24;99960.56;;;33.15;33.46
58072;BME280;60383;46.626;18.866;2022-08-26T10:17:02;99957.09;;;33.18;33.37
58072;BME280;60383;46.626;18.866;2022-08-26T10:19:56;99944.25;;;33.20;32.83
58072;BME280;60383;46.626;18.866;2022-08-26T10:25:16;99953.50;;;33.26;33.73
58072;BME280;60383;46.626;18.866;2022-08-26T10:27:49;99956.72;;;33.33;32.76
58072;BME280;60383;46.626;18.866;2022-08-26T10:30:20;99946.63;;;33.27;34.05
58072;BME280;60383;46.626;18.866;2022-08-26T10:32:54;99944.59;;;33.64;32.85
58072;BME280;60383;46.626;18.866;2022-08-26T10:35:21;99939.72;;;33.65;31.29
58072;BME280;60383;46.626;18.866;2022-08-26T10:37:51;99944.59;;;33.64;31.90
58072;BME280;60383;46.626;18.866;2022-08-26T10:45:36;99930.41;;;33.96;30.28
58072;BME280;60383;46.626;18.866;2022-08-26T10:48:05;99937.06;;;33.91;31.20
58072;BME280;60383;46.626;18.866;2022-08-26T10:50:32;99933.97;;;34.01;31.43
58072;BME280;60383;46.626;18.866;2022-08-26T10:53:07;99930.72;;;34.26;30.62
58072;BME280;60383;46.626;18.866;2022-08-26T11:04:19;99925.31;;;34.15;29.59
58072;BME280;60383;46.626;18.866;2022-08-26T11:06:48;99920.78;;;34.14;29.58
58072;BME280;60383;46.626;18.866;2022-08-26T11:09:43;99922.66;;;34.28;30.39
58072;BME280;60383;46.626;18.866;2022-08-26T11:17:54;99916.22;;;34.45;28.30
58072;BME280;60383;46.626;18.866;2022-08-26T11:20:41;99909.56;;;34.49;30.42
58072;BME280;60383;46.626;18.866;2022-08-26T11:30:57;99894.22;;;34.85;29.05
58072;BME280;60383;46.626;18.866;2022-08-26T11:36:09;99891.84;;;34.61;30.13
58072;BME280;60383;46.626;18.866;2022-08-26T11:38:41;99893.66;;;34.57;30.20
58072;BME280;60383;46.626;18.866;2022-08-26T11:41:08;99891.34;;;34.68;29.28
58072;BME280;60383;46.626;18.866;2022-08-26T11:43:37;99888.50;;;34.59;28.83
58072;BME280;60383;46.626;18.866;2022-08-26T11:46:11;99887.63;;;34.50;28.97
58072;BME280;60383;46.626;18.866;2022-08-26T11:48:38;99885.41;;;34.29;29.48
58072;BME280;60383;46.626;18.866;2022-08-26T11:51:26;99877.94;;;34.51;29.47
58072;BME280;60383;46.626;18.866;2022-08-26T11:54:10;99874.09;;;34.38;29.93
58072;BME280;60383;46.626;18.866;2022-08-26T11:56:38;99874.47;;;34.54;29.86
58072;BME280;60383;46.626;18.866;2022-08-26T11:59:09;99865.28;;;34.75;28.78
58072;BME280;60383;46.626;18.866;2022-08-26T12:01:37;99875.13;;;34.60;27.66
58072;BME280;60383;46.626;18.866;2022-08-26T12:04:05;99869.44;;;34.60;27.25
58072;BME280;60383;46.626;18.866;2022-08-26T12:06:37;99871.94;;;34.61;28.61
58072;BME280;60383;46.626;18.866;2022-08-26T12:09:18;99868.94;;;34.66;26.66
58072;BME280;60383;46.626;18.866;2022-08-26T12:11:44;99866.66;;;34.11;26.26
58072;BME280;60383;46.626;18.866;2022-08-26T12:14:22;99860.69;;;34.30;26.42
58072;BME280;60383;46.626;18.866;2022-08-26T12:16:51;99864.25;;;34.53;27.27
58072;BME280;60383;46.626;18.866;2022-08-26T12:19:27;99860.59;;;34.70;26.21
58072;BME280;60383;46.626;18.866;2022-08-26T12:22:03;99861.09;;;34.63;27.43
58072;BME280;60383;46.626;18.866;2022-08-26T12:24:30;99854.41;;;34.85;25.51
58072;BME280;60383;46.626;18.866;2022-08-26T12:27:20;99853.22;;;34.69;26.81
58072;BME280;60383;46.626;18.866;2022-08-26T12:30:03;99849.22;;;34.87;27.16
58072;BME280;60383;46.626;18.866;2022-08-26T12:32:29;99842.88;;;34.91;26.14
58072;BME280;60383;46.626;18.866;2022-08-26T12:34:58;99841.53;;;34.97;25.61
58072;BME280;60383;46.626;18.866;2022-08-26T12:37:26;99832.47;;;34.77;26.82
58072;BME280;60383;46.626;18.866;2022-08-26T12:39:54;99835.50;;;34.81;26.75
58072;BME280;60383;46.626;18.866;2022-08-26T12:42:21;99831.84;;;34.89;27.33
58072;BME280;60383;46.626;18.866;2022-08-26T12:49:40;99820.75;;;34.44;26.77
58072;BME280;60383;46.626;18.866;2022-08-26T12:52:20;99819.41;;;34.23;28.27
58072;BME280;60383;46.626;18.866;2022-08-26T12:54:56;99825.97;;;34.59;26.25
58072;BME280;60383;46.626;18.866;2022-08-26T12:57:36;99820.63;;;34.66;25.31
58072;BME280;60383;46.626;18.866;2022-08-26T13:00:39;99815.59;;;34.54;26.15
58072;BME280;60383;46.626;18.866;2022-08-26T13:03:28;99807.00;;;34.11;27.67
58072;BME280;60383;46.626;18.866;2022-08-26T13:08:39;99801.00;;;34.21;27.17
58072;BME280;60383;46.626;18.866;2022-08-26T13:14:28;99802.22;;;34.46;25.87
58072;BME280;60383;46.626;18.866;2022-08-26T13:16:53;99792.63;;;34.16;27.44
58072;BME280;60383;46.626;18.866;2022-08-26T13:19:21;99803.25;;;33.84;30.07
58072;BME280;60383;46.626;18.866;2022-08-26T13:21:52;99797.47;;;34.15;27.21
58072;BME280;60383;46.626;18.866;2022-08-26T13:24:36;99797.13;;;33.90;25.79
58072;BME280;60383;46.626;18.866;2022-08-26T13:27:03;99779.97;;;33.73;27.90
58072;BME280;60383;46.626;18.866;2022-08-26T13:29:29;99780.91;;;33.91;27.05
58072;BME280;60383;46.626;18.866;2022-08-26T13:31:55;99783.28;;;34.24;27.25
58072;BME280;60383;46.626;18.866;2022-08-26T13:34:21;99780.63;;;34.28;27.01
58072;BME280;60383;46.626;18.866;2022-08-26T13:36:49;99772.91;;;34.19;27.02
58072;BME280;60383;46.626;18.866;2022-08-26T13:39:15;99772.94;;;34.28;28.04
58072;BME280;60383;46.626;18.866;2022-08-26T13:41:41;99771.75;;;34.20;28.02
58072;BME280;60383;46.626;18.866;2022-08-26T13:44:08;99772.56;;;34.03;28.10
58072;BME280;60383;46.626;18.866;2022-08-26T13:46:33;99762.06;;;34.13;27.70
58072;BME280;60383;46.626;18.866;2022-08-26T13:48:59;99758.88;;;34.05;28.75
58072;BME280;60383;46.626;18.866;2022-08-26T13:51:26;99759.22;;;34.13;27.83